KBBB/BBB METAR and TAF weather

Enter ICAO airport designator
Station Type Date Time Source
KBBB METAR 2022/08/12 14:15 UTC NOAA

KBBB 121415Z AUTO 16015G22KT 10SM CLR 20/17 A3004 RMK AO2


Station Type Date Time Source
KBBB Decoded METAR 2022/08/12 14:15 UTC NOAA

Benson Municipal, MN, United States (KBBB) 45-19N 095-39W
Aug 12, 2022 - 10:15 AM EDT / 2022.08.12 1415 UTC
Wind: from the SSE (160 degrees) at 17 MPH (15 KT) gusting to 25 MPH (22 KT):0
Visibility: 10 mile(s):0
Sky conditions: clear
Temperature: 68 F (20 C)
Dew Point: 62 F (17 C)
Relative Humidity: 82%
Pressure (altimeter): 30.04 in. Hg (1017 hPa)
ob: KBBB 121415Z AUTO 16015G22KT 10SM CLR 20/17 A3004 RMK AO2
cycle: 14

Station Type Date Time Source
KBBB TAF UTC NOAA

Error!

Example: see airport list